createdAt,value
2022-10-03T00:01:45.022Z,13.40
2022-10-03T00:06:43.927Z,13.30
2022-10-03T00:11:37.882Z,13.20
2022-10-03T00:16:29.787Z,13.10
2022-10-03T00:21:30.290Z,13.10
2022-10-03T00:26:31.886Z,13.00
2022-10-03T00:31:18.436Z,13.00
2022-10-03T00:36:11.148Z,13.00
2022-10-03T00:41:18.933Z,13.00
2022-10-03T00:46:32.598Z,13.10
2022-10-03T00:51:38.275Z,13.10
2022-10-03T00:56:54.455Z,13.10
2022-10-03T01:01:44.917Z,13.10
2022-10-03T01:06:39.688Z,13.10
2022-10-03T01:11:35.583Z,13.10
2022-10-03T01:16:27.683Z,13.10
2022-10-03T01:21:21.467Z,13.10
2022-10-03T01:26:24.407Z,13.10
2022-10-03T01:31:13.350Z,13.00
2022-10-03T01:36:04.416Z,13.00
2022-10-03T01:40:55.758Z,13.00
2022-10-03T01:45:49.356Z,13.00
2022-10-03T01:50:39.416Z,13.00
2022-10-03T01:55:29.998Z,13.00
2022-10-03T02:00:17.892Z,13.00
2022-10-03T02:05:09.771Z,13.00
2022-10-03T02:10:04.000Z,13.10
2022-10-03T02:14:54.782Z,13.10
2022-10-03T02:19:48.545Z,13.00
2022-10-03T02:24:44.607Z,12.90
2022-10-03T02:29:48.724Z,13.00
2022-10-03T02:35:07.403Z,13.00
2022-10-03T02:40:31.183Z,13.00
2022-10-03T02:45:50.957Z,13.00
2022-10-03T02:51:03.594Z,13.00
2022-10-03T02:56:25.550Z,13.00
2022-10-03T03:01:37.061Z,12.90
2022-10-03T03:06:42.725Z,12.80
2022-10-03T03:12:07.393Z,12.70
2022-10-03T03:17:08.915Z,12.60
2022-10-03T03:21:59.633Z,12.50
2022-10-03T03:27:03.209Z,12.60
2022-10-03T03:31:54.789Z,12.50
2022-10-03T03:36:51.659Z,12.40
2022-10-03T03:41:51.444Z,12.40
2022-10-03T03:46:44.979Z,12.40
2022-10-03T03:51:37.471Z,12.40
2022-10-03T03:56:51.314Z,12.30
2022-10-03T04:01:50.649Z,12.40
2022-10-03T04:06:46.443Z,12.40
2022-10-03T04:11:43.786Z,12.30
2022-10-03T04:17:05.314Z,12.30
2022-10-03T04:22:03.188Z,12.30
2022-10-03T04:27:01.538Z,12.20
2022-10-03T04:31:57.361Z,12.20
2022-10-03T04:37:04.259Z,12.30
2022-10-03T04:41:55.379Z,12.30
2022-10-03T04:46:47.824Z,12.30
2022-10-03T04:51:54.690Z,12.30
2022-10-03T04:56:50.075Z,12.30
2022-10-03T05:01:41.585Z,12.30
2022-10-03T05:06:36.681Z,12.20
2022-10-03T05:11:35.408Z,12.20
2022-10-03T05:16:29.285Z,12.20
2022-10-03T05:21:16.700Z,12.20
2022-10-03T05:26:42.991Z,12.10
2022-10-03T05:31:30.862Z,12.10
2022-10-03T05:36:22.286Z,12.10
2022-10-03T05:41:10.508Z,12.10
2022-10-03T05:46:02.444Z,12.00
2022-10-03T05:51:13.643Z,12.00
2022-10-03T05:56:09.905Z,12.00
2022-10-03T06:01:19.726Z,12.00
2022-10-03T06:06:14.924Z,12.00
2022-10-03T06:11:09.300Z,12.00
2022-10-03T06:16:00.767Z,12.10
2022-10-03T06:21:21.595Z,12.20
2022-10-03T06:26:34.904Z,12.30
2022-10-03T06:31:45.316Z,12.30
2022-10-03T06:36:58.619Z,12.50
2022-10-03T06:42:13.944Z,12.60
2022-10-03T06:47:19.515Z,12.70
2022-10-03T06:52:38.347Z,12.80
2022-10-03T06:57:56.262Z,12.90
2022-10-03T07:03:11.457Z,13.00
2022-10-03T07:08:48.851Z,13.10
2022-10-03T07:14:00.130Z,13.30
2022-10-03T07:19:15.257Z,13.50
2022-10-03T07:24:13.185Z,13.80
2022-10-03T07:29:24.770Z,13.90
2022-10-03T07:34:30.597Z,14.00
2022-10-03T07:39:43.260Z,14.10
2022-10-03T07:44:50.845Z,14.10
2022-10-03T07:49:56.148Z,14.30
2022-10-03T07:54:59.414Z,14.50
2022-10-03T08:00:23.161Z,14.50
2022-10-03T08:05:25.334Z,15.20
2022-10-03T08:10:31.512Z,16.10
2022-10-03T08:15:29.922Z,16.40
2022-10-03T08:20:31.341Z,16.80
2022-10-03T08:25:30.916Z,18.20
2022-10-03T08:30:23.966Z,19.10
2022-10-03T08:35:31.278Z,18.90
2022-10-03T08:40:56.909Z,19.10
2022-10-03T08:45:57.617Z,19.80
2022-10-03T08:51:31.955Z,20.40
2022-10-03T08:56:23.257Z,21.90
2022-10-03T09:01:23.931Z,21.70
2022-10-03T09:07:12.215Z,22.20
2022-10-03T09:12:34.479Z,22.10
2022-10-03T09:17:52.875Z,23.30
2022-10-03T09:23:14.992Z,23.70
2022-10-03T09:28:39.155Z,23.60
2022-10-03T09:33:56.057Z,23.30
2022-10-03T09:39:21.530Z,23.00
2022-10-03T09:44:35.132Z,23.40
2022-10-03T09:49:47.262Z,24.40
2022-10-03T09:54:58.618Z,24.60
2022-10-03T10:00:04.332Z,25.70
2022-10-03T10:05:00.673Z,24.30
2022-10-03T10:10:05.207Z,25.30
2022-10-03T10:15:09.315Z,25.60
2022-10-03T10:20:05.345Z,26.30
2022-10-03T10:25:25.100Z,26.20
2022-10-03T10:30:22.056Z,27.20
2022-10-03T10:35:48.417Z,27.70
2022-10-03T10:41:07.118Z,27.30
2022-10-03T10:46:21.841Z,25.10
2022-10-03T10:51:32.809Z,23.30
2022-10-03T10:56:34.653Z,22.70
2022-10-03T11:01:54.888Z,23.10
2022-10-03T11:07:17.061Z,24.40
2022-10-03T11:12:37.922Z,23.40
2022-10-03T11:18:03.706Z,23.10
2022-10-03T11:23:28.171Z,22.80
2022-10-03T11:29:03.360Z,22.30
2022-10-03T11:34:39.093Z,21.80
2022-10-03T11:39:30.064Z,21.60
2022-10-03T11:44:23.869Z,21.70
2022-10-03T11:49:20.667Z,22.10
2022-10-03T11:54:30.945Z,22.30
2022-10-03T11:59:46.691Z,22.40
2022-10-03T12:04:36.383Z,22.10
2022-10-03T12:09:29.548Z,22.40
2022-10-03T12:14:26.012Z,23.00
2022-10-03T12:19:21.029Z,23.10
2022-10-03T12:24:28.811Z,23.90
2022-10-03T12:29:15.590Z,25.00
2022-10-03T12:34:17.224Z,28.00
2022-10-03T12:39:15.162Z,30.10
2022-10-03T12:44:19.081Z,31.10
2022-10-03T12:49:06.544Z,31.10
2022-10-03T12:54:01.864Z,31.20
2022-10-03T12:58:53.818Z,32.20
2022-10-03T13:03:52.333Z,29.30
2022-10-03T13:08:57.580Z,28.60
2022-10-03T13:13:53.875Z,29.40
2022-10-03T13:18:52.661Z,31.00
2022-10-03T13:23:44.406Z,31.50
2022-10-03T13:28:35.145Z,30.70
2022-10-03T13:33:20.528Z,29.80
2022-10-03T13:38:47.116Z,31.90
2022-10-03T13:43:36.644Z,31.30
2022-10-03T13:48:23.709Z,31.10
2022-10-03T13:53:13.547Z,31.70
2022-10-03T13:58:27.751Z,31.10
2022-10-03T14:03:21.116Z,32.30
2022-10-03T14:08:15.314Z,32.20
2022-10-03T14:13:19.904Z,29.20
2022-10-03T14:18:14.052Z,31.30
2022-10-03T14:23:16.046Z,32.50
2022-10-03T14:28:04.680Z,31.50
2022-10-03T14:33:11.201Z,29.50
2022-10-03T14:38:00.181Z,30.90
2022-10-03T14:43:01.077Z,30.90
2022-10-03T14:47:50.233Z,27.50
2022-10-03T14:52:40.918Z,27.20
2022-10-03T14:57:39.683Z,27.30
2022-10-03T15:02:36.968Z,29.50
2022-10-03T15:07:36.320Z,30.20
2022-10-03T15:12:24.397Z,30.20
2022-10-03T15:17:18.862Z,31.00
2022-10-03T15:22:12.665Z,31.80
2022-10-03T15:27:05.681Z,32.00
2022-10-03T15:31:50.446Z,32.00
2022-10-03T15:36:38.707Z,30.60
2022-10-03T15:41:29.104Z,29.60
2022-10-03T15:46:32.966Z,27.00
2022-10-03T15:51:21.239Z,24.30
2022-10-03T15:56:15.328Z,22.60
2022-10-03T16:01:14.263Z,21.40
2022-10-03T16:06:10.089Z,20.60
2022-10-03T16:11:05.155Z,19.90
2022-10-03T16:16:09.078Z,19.30
2022-10-03T16:20:58.682Z,18.80
2022-10-03T16:25:48.488Z,18.40
2022-10-03T16:30:37.629Z,18.20
2022-10-03T16:35:32.960Z,18.10
2022-10-03T16:40:23.277Z,17.90
2022-10-03T16:45:25.272Z,17.70
2022-10-03T16:50:28.790Z,17.40
2022-10-03T16:55:17.971Z,17.30
2022-10-03T17:00:06.653Z,16.90
2022-10-03T17:04:56.356Z,16.80
2022-10-03T17:09:44.371Z,16.80
2022-10-03T17:14:34.938Z,16.70
2022-10-03T17:19:26.403Z,16.70
2022-10-03T17:24:14.745Z,16.60
2022-10-03T17:29:07.850Z,16.40
2022-10-03T17:33:55.026Z,16.30
2022-10-03T17:38:49.925Z,16.10
2022-10-03T17:43:41.748Z,16.00
2022-10-03T17:48:32.096Z,15.90
2022-10-03T17:53:22.781Z,16.00
2022-10-03T17:58:08.838Z,15.80
2022-10-03T18:03:00.527Z,16.00
2022-10-03T18:07:45.254Z,15.80
2022-10-03T18:12:35.572Z,15.80
2022-10-03T18:17:23.408Z,15.70
2022-10-03T18:22:17.061Z,15.80
2022-10-03T18:27:26.695Z,15.70
2022-10-03T18:32:16.100Z,15.70
2022-10-03T18:37:18.102Z,15.60
2022-10-03T18:42:05.642Z,15.40
2022-10-03T18:46:53.561Z,15.20
2022-10-03T18:51:40.900Z,15.00
2022-10-03T18:56:28.606Z,15.00
2022-10-03T19:01:19.524Z,15.10
2022-10-03T19:06:08.719Z,15.10
2022-10-03T19:10:55.778Z,15.20
2022-10-03T19:15:58.723Z,15.20
2022-10-03T19:20:47.375Z,15.10
2022-10-03T19:25:32.772Z,14.80
2022-10-03T19:30:22.068Z,14.70
2022-10-03T19:35:06.660Z,14.70
2022-10-03T19:39:51.758Z,14.80
2022-10-03T19:44:35.365Z,14.80
2022-10-03T19:49:31.052Z,14.70
2022-10-03T19:54:28.072Z,14.70
2022-10-03T19:59:19.050Z,14.60
2022-10-03T20:04:02.923Z,14.70
2022-10-03T20:08:48.770Z,14.60
2022-10-03T20:13:32.735Z,14.60
2022-10-03T20:18:23.391Z,14.60
2022-10-03T20:23:09.291Z,14.50
2022-10-03T20:27:56.696Z,14.50
2022-10-03T20:32:45.729Z,14.60
2022-10-03T20:37:45.910Z,14.40
2022-10-03T20:42:32.309Z,14.20
2022-10-03T20:47:24.072Z,14.20
2022-10-03T20:52:09.985Z,14.40
2022-10-03T20:56:58.483Z,14.40
2022-10-03T21:01:43.627Z,14.40
2022-10-03T21:06:31.719Z,14.40
2022-10-03T21:11:22.329Z,14.50
2022-10-03T21:16:19.276Z,14.40
2022-10-03T21:21:09.859Z,14.40
2022-10-03T21:26:01.416Z,14.40
2022-10-03T21:31:07.232Z,14.40
2022-10-03T21:35:55.106Z,14.30
2022-10-03T21:41:09.093Z,14.20
2022-10-03T21:45:59.500Z,14.20
2022-10-03T21:50:50.746Z,14.10
2022-10-03T21:55:52.617Z,14.00
2022-10-03T22:00:57.175Z,13.80
2022-10-03T22:05:49.671Z,13.70
2022-10-03T22:10:42.293Z,13.60
2022-10-03T22:15:35.777Z,13.40
2022-10-03T22:20:23.116Z,13.10
2022-10-03T22:25:15.143Z,13.00
2022-10-03T22:30:06.108Z,12.80
2022-10-03T22:35:00.158Z,12.70
2022-10-03T22:39:44.041Z,12.60
2022-10-03T22:44:30.910Z,12.40
2022-10-03T22:49:21.026Z,12.30
2022-10-03T22:54:11.110Z,12.00
2022-10-03T22:58:54.624Z,11.60
2022-10-03T23:03:38.345Z,11.50
2022-10-03T23:08:37.874Z,11.40
2022-10-03T23:13:35.997Z,11.40
2022-10-03T23:18:43.806Z,11.10
2022-10-03T23:23:34.858Z,11.00
2022-10-03T23:28:24.163Z,10.90
2022-10-03T23:33:19.293Z,10.90
2022-10-03T23:38:03.385Z,10.70
2022-10-03T23:43:00.879Z,10.60
2022-10-03T23:47:48.126Z,10.40
2022-10-03T23:52:36.308Z,10.40
2022-10-03T23:57:21.501Z,10.10
